SNLG weather

Serra do CipĆ³ Airport
Jaboticatubas, Minas Gerais, Brazil

Public forecast

Using degrees Celsius for public forecast. Weather courtesy of forecast.io.

METAR (pilot weather report)

Report is more than 2 hours old.

Closest report is Lagoa Santa Airport, 17.9 nm (33.2 km) SSW. Retrieved 2019/09/16 01:00 UTC (2 hours ago):

SBLS 160100Z 14011KT CAVOK 22/13 Q1022

TAF (pilot weather forecast)

Closest forecast is Tancredo Neves International Airport, 18.6 nm (34.5 km) SW. Retrieved 2019/09/16 00:00 UTC (3 hours ago):

TAF SBCF 152200Z 1600/1624 09007KT CAVOK TN18/1608Z TX29/1618Z BECMG 1611/1613 09012KT RMK PEU